Time;durP1;ratioP1;P1;durP2;ratioP2;P2;SDS_P1;SDS_P2;PMS_P1;PMS_P2;Temp;Humidity;BMP_temperature;BMP_pressure;BME280_temperature;BME280_humidity;BME280_pressure;Samples;Min_cycle;Max_cycle;Signal;HPM_P1;HPM_P2
2023/04/16 00:01:59;;;;;;;8.67;7.70;;;;;;;5.38;100.00;95940.06;7397829;19;20389;-75
2023/04/16 00:04:26;;;;;;;10.03;8.93;;;;;;;5.37;100.00;95920.16;7393865;19;20788;-76
2023/04/16 00:06:53;;;;;;;10.40;8.97;;;;;;;5.24;100.00;95918.41;7396672;19;20460;-76
2023/04/16 00:09:20;;;;;;;10.60;9.20;;;;;;;5.30;100.00;95910.09;7395573;19;20360;-76
2023/04/16 00:11:47;;;;;;;10.20;9.20;;;;;;;5.48;100.00;95937.19;7398292;19;20406;-76
2023/04/16 00:14:14;;;;;;;11.10;10.10;;;;;;;5.44;100.00;95951.16;7393873;19;20853;-76
2023/04/16 00:16:41;;;;;;;10.60;9.43;;;;;;;5.20;100.00;95915.59;7397332;19;20372;-76
2023/04/16 00:19:08;;;;;;;14.60;10.87;;;;;;;5.17;100.00;95904.94;7395375;19;20420;-76
2023/04/16 00:21:35;;;;;;;20.10;10.63;;;;;;;5.08;100.00;95909.41;7396481;19;20405;-76
2023/04/16 00:24:02;;;;;;;15.77;12.37;;;;;;;5.18;100.00;95928.22;7393393;19;20428;-76
2023/04/16 00:26:29;;;;;;;16.77;14.00;;;;;;;5.34;100.00;95947.75;7396856;19;20462;-76
2023/04/16 00:28:57;;;;;;;13.77;11.07;;;;;;;5.17;100.00;95915.44;7395209;19;20404;-75
2023/04/16 00:31:28;;;;;;;14.57;12.00;;;;;;;5.30;100.00;95933.69;7396653;19;20384;-76
2023/04/16 00:33:56;;;;;;;14.80;11.20;;;;;;;5.40;100.00;95948.38;7394422;19;20416;-76
2023/04/16 00:36:24;;;;;;;12.70;11.03;;;;;;;5.39;100.00;95946.06;7396363;19;20360;-76
2023/04/16 00:38:52;;;;;;;17.17;13.80;;;;;;;5.31;100.00;95953.56;7396659;19;20349;-76
2023/04/16 00:41:19;;;;;;;13.70;11.60;;;;;;;5.31;100.00;95958.81;7393471;19;20372;-76
2023/04/16 00:43:46;;;;;;;12.57;11.27;;;;;;;5.34;100.00;95947.75;7394715;19;20471;-76
2023/04/16 00:46:13;;;;;;;14.37;11.77;;;;;;;5.26;100.00;95948.47;7393587;19;20369;-76
2023/04/16 00:48:42;;;;;;;17.00;12.20;;;;;;;5.39;100.00;95954.72;7395335;19;20384;-76
2023/04/16 00:51:10;;;;;;;12.87;11.10;;;;;;;5.42;100.00;95950.69;7394240;19;20372;-76
2023/04/16 00:53:37;;;;;;;19.17;11.27;;;;;;;4.86;100.00;95868.28;7396429;19;20417;-76
2023/04/16 00:56:05;;;;;;;12.13;10.90;;;;;;;5.41;100.00;95949.16;7395472;19;20376;-76
2023/04/16 00:58:34;;;;;;;15.23;11.33;;;;;;;5.36;100.00;95934.34;7396838;19;20375;-75
2023/04/16 01:01:01;;;;;;;14.10;11.20;;;;;;;5.29;100.00;95934.00;7393986;19;20397;-75
2023/04/16 01:03:40;;;;;;;12.67;10.30;;;;;;;5.39;100.00;95952.09;7393621;19;20413;-75
2023/04/16 01:06:07;;;;;;;13.20;10.97;;;;;;;5.30;100.00;95944.16;7394252;19;20437;-75
2023/04/16 01:08:34;;;;;;;17.87;10.60;;;;;;;5.33;100.00;95961.13;7395978;19;20404;-75
2023/04/16 01:11:01;;;;;;;13.73;10.73;;;;;;;5.38;100.00;95960.25;7393897;19;20357;-75
2023/04/16 01:13:28;;;;;;;12.83;11.37;;;;;;;5.32;100.00;95952.50;7395110;19;20433;-75
2023/04/16 01:15:55;;;;;;;11.83;10.63;;;;;;;5.35;100.00;95948.53;7393754;19;20440;-75
2023/04/16 01:18:23;;;;;;;15.03;12.20;;;;;;;5.40;100.00;95953.63;7395498;19;20364;-75
2023/04/16 01:20:50;;;;;;;12.80;10.93;;;;;;;5.38;100.00;95960.25;7393994;19;20408;-75
2023/04/16 01:23:18;;;;;;;16.23;11.63;;;;;;;5.15;100.00;95934.09;7401437;19;20397;-75
2023/04/16 01:25:45;;;;;;;19.67;13.40;;;;;;;5.04;100.00;95923.06;7405343;19;20356;-75
2023/04/16 01:28:12;;;;;;;16.83;12.23;;;;;;;5.13;100.00;95938.09;7394114;19;20454;-76
2023/04/16 01:30:40;;;;;;;14.57;10.87;;;;;;;5.17;100.00;95949.50;7393420;19;20372;-76
2023/04/16 01:33:27;;;;;;;13.80;11.60;;;;;;;5.14;100.00;95939.63;7393149;19;20409;-76
2023/04/16 01:35:54;;;;;;;16.00;11.43;;;;;;;5.29;100.00;95953.09;7396200;19;20401;-75
2023/04/16 01:38:21;;;;;;;15.77;11.23;;;;;;;4.94;100.00;95907.63;7399793;19;20987;-76
2023/04/16 01:40:48;;;;;;;15.87;12.37;;;;;;;5.17;100.00;95944.25;7401586;19;20415;-76
2023/04/16 01:43:15;;;;;;;13.97;11.47;;;;;;;5.19;100.00;95931.63;7398119;19;20488;-76
2023/04/16 01:45:42;;;;;;;15.90;11.60;;;;;;;5.22;100.00;95949.38;7401803;19;20376;-76
2023/04/16 01:48:10;;;;;;;14.83;9.43;;;;;;;5.32;100.00;95954.34;7400115;19;20352;-76
2023/04/16 01:50:37;;;;;;;12.73;8.60;;;;;;;5.09;100.00;95931.91;7401954;19;20372;-76
2023/04/16 01:53:04;;;;;;;11.57;10.07;;;;;;;5.29;100.00;95955.72;7399388;19;21035;-76
2023/04/16 01:55:33;;;;;;;11.50;9.50;;;;;;;5.10;100.00;95936.06;7401194;19;20377;-76
2023/04/16 01:58:00;;;;;;;12.07;9.77;;;;;;;5.24;100.00;95955.88;7399826;19;20905;-76
2023/04/16 02:00:31;;;;;;;12.77;9.93;;;;;;;5.37;100.00;95958.72;7401866;19;20404;-76
2023/04/16 02:02:58;;;;;;;11.30;8.57;;;;;;;5.18;100.00;95937.94;7400302;19;20353;-76
2023/04/16 02:05:27;;;;;;;10.17;9.00;;;;;;;5.19;100.00;95934.25;7401413;19;20404;-76
2023/04/16 02:07:54;;;;;;;11.07;9.20;;;;;;;5.04;100.00;95919.69;7400065;19;20377;-76
2023/04/16 02:10:21;;;;;;;10.50;9.20;;;;;;;5.32;100.00;95962.22;7401799;19;20380;-76
2023/04/16 02:12:48;;;;;;;11.73;9.43;;;;;;;5.04;100.00;95930.16;7399225;19;20745;-76
2023/04/16 02:15:15;;;;;;;11.80;9.50;;;;;;;5.18;100.00;95943.19;7401971;19;20384;-77
2023/04/16 02:17:42;;;;;;;15.13;10.30;;;;;;;5.02;100.00;95927.84;7399398;19;20392;-76
2023/04/16 02:20:10;;;;;;;12.73;9.20;;;;;;;5.01;100.00;95923.69;7401436;19;20377;-76
2023/04/16 02:22:43;;;;;;;11.47;9.80;;;;;;;5.17;100.00;95933.78;7398597;19;20373;-76
2023/04/16 02:25:13;;;;;;;12.37;9.93;;;;;;;5.09;100.00;95932.66;7398335;19;20387;-76
2023/04/16 02:27:41;;;;;;;11.20;9.37;;;;;;;5.13;100.00;95948.56;7399355;19;20368;-76
2023/04/16 02:30:23;;;;;;;10.13;8.40;;;;;;;5.16;100.00;95971.53;7398277;19;20455;-76
2023/04/16 02:32:51;;;;;;;12.93;9.93;;;;;;;5.13;100.00;95959.81;7399536;19;20730;-76
2023/04/16 02:35:19;;;;;;;10.60;9.00;;;;;;;5.27;100.00;95972.84;7398741;19;20369;-76
2023/04/16 02:37:45;;;;;;;11.93;9.70;;;;;;;5.13;100.00;95953.81;7399621;19;20372;-76
2023/04/16 02:40:13;;;;;;;12.30;9.30;;;;;;;5.25;100.00;95982.84;7398422;19;20376;-76
2023/04/16 02:42:39;;;;;;;11.17;8.70;;;;;;;5.07;100.00;95950.50;7399756;19;20376;-76
2023/04/16 02:45:07;;;;;;;12.30;10.00;;;;;;;4.83;100.00;95910.78;7395999;19;20454;-76
2023/04/16 02:47:34;;;;;;;11.00;9.13;;;;;;;5.20;100.00;95965.38;7399563;19;20933;-76
2023/04/16 02:50:02;;;;;;;8.73;7.93;;;;;;;5.14;100.00;95950.09;7398238;19;20372;-76
2023/04/16 02:52:31;;;;;;;9.77;7.70;;;;;;;5.44;100.00;95982.63;7399840;19;20357;-76
2023/04/16 02:54:58;;;;;;;9.27;7.70;;;;;;;5.36;100.00;95968.41;7396515;19;20400;-76
2023/04/16 02:57:25;;;;;;;14.23;9.17;;;;;;;5.35;100.00;95959.00;7400377;19;20392;-76
2023/04/16 02:59:52;;;;;;;7.80;7.07;;;;;;;5.06;100.00;95920.16;7398045;19;20376;-76
2023/04/16 03:02:19;;;;;;;8.43;7.53;;;;;;;5.46;100.00;95993.59;7399534;19;20391;-76
2023/04/16 03:04:46;;;;;;;8.40;6.63;;;;;;;5.22;100.00;95952.78;7395934;19;20436;-76
2023/04/16 03:07:13;;;;;;;8.57;7.10;;;;;;;5.50;100.00;96003.19;7401004;19;20362;-76
2023/04/16 03:09:40;;;;;;;6.97;5.87;;;;;;;5.38;100.00;95979.38;7398407;19;20405;-76
2023/04/16 03:12:07;;;;;;;8.10;7.27;;;;;;;5.43;100.00;95984.47;7399363;19;20401;-76
2023/04/16 03:14:34;;;;;;;8.30;6.83;;;;;;;5.34;100.00;95973.97;7395941;19;21104;-76
2023/04/16 03:17:01;;;;;;;9.90;7.27;;;;;;;5.38;100.00;95982.00;7400634;19;20377;-76
2023/04/16 03:19:28;;;;;;;8.30;7.27;;;;;;;5.48;100.00;95997.47;7399538;19;20420;-76
2023/04/16 03:21:55;;;;;;;7.77;6.73;;;;;;;5.34;100.00;95981.84;7396662;19;20838;-76
2023/04/16 03:24:21;;;;;;;7.57;6.40;;;;;;;5.36;100.00;95996.47;7396181;19;20459;-75
2023/04/16 03:26:48;;;;;;;7.73;6.97;;;;;;;5.24;100.00;95987.31;7396753;19;20364;-75
2023/04/16 03:29:16;;;;;;;8.37;6.90;;;;;;;5.38;100.00;95997.72;7397832;19;20400;-76
2023/04/16 03:31:43;;;;;;;8.13;6.73;;;;;;;5.42;100.00;96003.91;7396341;19;20383;-75
2023/04/16 03:34:10;;;;;;;6.50;5.90;;;;;;;5.42;100.00;96006.53;7396172;19;20436;-75
2023/04/16 03:36:39;;;;;;;7.40;6.57;;;;;;;5.32;100.00;96002.31;7396015;19;20901;-75
2023/04/16 03:39:05;;;;;;;8.43;6.87;;;;;;;5.31;100.00;95999.97;7397951;19;20432;-75
2023/04/16 03:41:33;;;;;;;7.80;6.90;;;;;;;5.33;100.00;96001.22;7396210;19;20380;-75
2023/04/16 03:44:01;;;;;;;8.90;7.40;;;;;;;5.46;100.00;96019.78;7396080;19;20443;-75
2023/04/16 03:46:28;;;;;;;10.00;7.90;;;;;;;5.25;100.00;95983.63;7395863;19;20443;-75
2023/04/16 03:48:55;;;;;;;11.93;8.00;;;;;;;5.30;100.00;95991.34;7397921;19;20469;-75
2023/04/16 03:51:23;;;;;;;10.53;9.30;;;;;;;5.28;100.00;95993.50;7395809;19;20400;-75
2023/04/16 03:53:50;;;;;;;9.17;8.10;;;;;;;5.28;100.00;96003.22;7396228;19;20453;-75
2023/04/16 03:56:17;;;;;;;11.77;10.20;;;;;;;5.45;100.00;96032.13;7396144;19;20411;-75
2023/04/16 03:58:44;;;;;;;12.30;9.20;;;;;;;5.30;100.00;96004.44;7396234;19;20452;-75
2023/04/16 04:01:11;;;;;;;11.93;10.00;;;;;;;5.41;100.00;96030.41;7396031;19;20394;-75
2023/04/16 04:03:38;;;;;;;10.70;9.40;;;;;;;5.42;100.00;96039.84;7396231;19;20440;-75
2023/04/16 04:06:09;;;;;;;15.37;8.43;;;;;;;5.39;100.00;96043.06;7395590;19;20368;-75
2023/04/16 04:08:36;;;;;;;11.70;9.93;;;;;;;5.20;100.00;96017.78;7397109;19;20874;-75
2023/04/16 04:11:04;;;;;;;13.30;10.80;;;;;;;5.32;100.00;96035.59;7395452;19;20433;-75
2023/04/16 04:13:32;;;;;;;14.60;10.80;;;;;;;5.34;100.00;96046.56;7396692;19;20436;-76
2023/04/16 04:15:59;;;;;;;16.20;11.90;;;;;;;5.20;100.00;96030.91;7395723;19;20399;-75
2023/04/16 04:18:27;;;;;;;12.47;10.90;;;;;;;5.26;100.00;96049.91;7396855;19;20429;-75
2023/04/16 04:20:54;;;;;;;16.17;11.13;;;;;;;4.97;100.00;96003.94;7395320;19;20429;-74
2023/04/16 04:23:25;;;;;;;14.97;13.47;;;;;;;5.18;100.00;96046.16;7396533;19;20519;-75
2023/04/16 04:25:52;;;;;;;17.50;11.87;;;;;;;5.23;100.00;96053.91;7396174;19;20388;-75
2023/04/16 04:28:19;;;;;;;14.57;11.83;;;;;;;5.09;100.00;96044.56;7397780;19;20414;-75
2023/04/16 04:30:46;;;;;;;22.30;14.37;;;;;;;5.17;100.00;96049.06;7395555;19;20435;-75
2023/04/16 04:33:13;;;;;;;19.23;12.93;;;;;;;5.21;100.00;96053.44;7396478;19;20428;-75
2023/04/16 04:35:41;;;;;;;19.57;14.77;;;;;;;5.18;100.00;96051.38;7395535;19;20729;-75
2023/04/16 04:38:08;;;;;;;18.50;14.30;;;;;;;5.21;100.00;96050.81;7395250;19;20726;-75
2023/04/16 04:40:35;;;;;;;17.37;13.90;;;;;;;5.23;100.00;96059.16;7395658;19;20404;-75
2023/04/16 04:43:02;;;;;;;18.33;13.33;;;;;;;5.24;100.00;96059.94;7393020;19;20503;-75
2023/04/16 04:45:30;;;;;;;16.43;12.87;;;;;;;5.07;100.00;96036.19;7395304;19;20376;-75
2023/04/16 04:47:57;;;;;;;19.50;14.83;;;;;;;5.14;100.00;96047.06;7393507;19;20417;-75
2023/04/16 04:50:25;;;;;;;14.20;12.40;;;;;;;5.13;100.00;96046.28;7395028;19;20420;-75
2023/04/16 04:52:52;;;;;;;17.40;13.43;;;;;;;5.08;100.00;96048.25;7394052;19;20400;-75
2023/04/16 04:55:18;;;;;;;16.77;13.83;;;;;;;4.98;100.00;96055.25;7394843;19;20377;-75
2023/04/16 04:57:45;;;;;;;14.20;11.77;;;;;;;5.22;100.00;96083.03;7393809;19;20376;-75
2023/04/16 05:00:12;;;;;;;21.73;13.17;;;;;;;5.03;100.00;96060.38;7395246;19;20435;-75
2023/04/16 05:02:46;;;;;;;20.53;12.73;;;;;;;5.00;100.00;96055.75;7393403;19;20447;-75
2023/04/16 05:05:13;;;;;;;16.40;13.20;;;;;;;4.96;100.00;96060.03;7395244;19;20388;-75
2023/04/16 05:07:40;;;;;;;16.30;13.30;;;;;;;5.04;100.00;96058.53;7393956;19;20888;-75
2023/04/16 05:10:08;;;;;;;16.73;13.70;;;;;;;4.99;100.00;96056.03;7394903;19;20422;-75
2023/04/16 05:12:35;;;;;;;15.73;13.17;;;;;;;5.03;100.00;96065.63;7401023;19;20396;-75
2023/04/16 05:15:02;;;;;;;19.77;15.00;;;;;;;5.28;100.00;96097.56;7399779;19;20803;-75
2023/04/16 05:17:29;;;;;;;17.27;12.70;;;;;;;5.16;100.00;96079.75;7400984;19;20397;-75
2023/04/16 05:19:56;;;;;;;17.13;12.83;;;;;;;5.28;100.00;96092.31;7403960;19;20395;-75
2023/04/16 05:22:22;;;;;;;20.03;13.60;;;;;;;5.32;100.00;96096.66;7401145;19;20544;-75
2023/04/16 05:24:49;;;;;;;19.27;13.93;;;;;;;5.40;100.00;96099.66;7400449;19;20444;-75
2023/04/16 05:27:16;;;;;;;17.60;13.00;;;;;;;5.46;100.00;96101.06;7401472;19;20380;-75
2023/04/16 05:29:43;;;;;;;21.93;13.27;;;;;;;5.39;100.00;96116.47;7402583;19;20400;-75
2023/04/16 05:32:10;;;;;;;23.73;15.73;;;;;;;5.38;100.00;96114.91;7400854;19;20440;-75
2023/04/16 05:34:37;;;;;;;18.13;13.30;;;;;;;5.21;100.00;96084.13;7401946;19;20428;-74
2023/04/16 05:37:04;;;;;;;20.07;13.77;;;;;;;5.22;100.00;96090.91;7401802;19;20432;-75
2023/04/16 05:39:31;;;;;;;24.53;19.60;;;;;;;5.40;100.00;96120.63;7401938;19;20408;-75
2023/04/16 05:41:58;;;;;;;20.33;14.67;;;;;;;5.32;100.00;96106.38;7401267;19;20364;-75
2023/04/16 05:44:25;;;;;;;21.37;15.47;;;;;;;5.49;100.00;96129.34;7400002;19;20500;-75
2023/04/16 05:46:52;;;;;;;19.23;13.67;;;;;;;5.53;100.00;96127.66;7400456;19;20479;-75
2023/04/16 05:49:19;;;;;;;22.80;13.83;;;;;;;5.51;100.00;96138.44;7402464;19;20455;-75
2023/04/16 05:51:46;;;;;;;25.13;13.97;;;;;;;5.54;100.00;96134.44;7401384;19;20380;-75
2023/04/16 05:54:13;;;;;;;20.70;13.97;;;;;;;5.37;100.00;96101.03;7401710;19;20433;-75
2023/04/16 05:56:39;;;;;;;22.10;13.80;;;;;;;5.58;100.00;96124.91;7400703;19;20413;-75
2023/04/16 05:59:06;;;;;;;19.40;13.07;;;;;;;5.56;100.00;96125.22;7399552;19;20403;-75
2023/04/16 06:01:33;;;;;;;16.60;12.53;;;;;;;5.59;100.00;96115.97;7400458;19;20380;-76
2023/04/16 06:04:01;;;;;;;16.60;12.83;;;;;;;5.46;100.00;96098.44;7397199;19;20821;-75
2023/04/16 06:06:28;;;;;;;17.67;13.03;;;;;;;5.49;100.00;96103.13;7401687;19;20355;-75
2023/04/16 06:08:55;;;;;;;18.97;13.00;;;;;;;5.54;100.00;96116.88;7398488;19;20904;-75
2023/04/16 06:11:22;;;;;;;21.03;13.13;;;;;;;5.55;100.00;96112.41;7400184;19;20368;-75
2023/04/16 06:13:49;;;;;;;19.20;11.80;;;;;;;5.60;100.00;96131.41;7398015;19;20436;-75
2023/04/16 06:16:16;;;;;;;17.13;12.03;;;;;;;5.67;100.00;96120.50;7399970;19;20357;-75
2023/04/16 06:18:43;;;;;;;15.53;12.57;;;;;;;5.80;100.00;96145.88;7400849;19;20348;-75
2023/04/16 06:21:09;;;;;;;14.80;10.20;;;;;;;5.51;100.00;96120.09;7400978;19;20731;-75
2023/04/16 06:23:36;;;;;;;12.70;10.13;;;;;;;5.82;100.00;96146.34;7397141;19;20835;-75
2023/04/16 06:26:04;;;;;;;14.80;10.77;;;;;;;5.81;100.00;96138.78;7399990;19;20408;-75
2023/04/16 06:28:31;;;;;;;10.93;9.20;;;;;;;5.84;100.00;96157.31;7398769;19;20422;-75
2023/04/16 06:30:59;;;;;;;16.03;11.13;;;;;;;5.86;100.00;96151.78;7401253;19;20423;-75
2023/04/16 06:33:26;;;;;;;17.40;10.67;;;;;;;5.73;100.00;96134.25;7397370;19;20388;-75
2023/04/16 06:35:53;;;;;;;15.50;10.97;;;;;;;5.93;100.00;96147.69;7400443;19;20393;-75
2023/04/16 06:38:20;;;;;;;14.40;10.60;;;;;;;5.79;100.00;96135.69;7399631;19;20406;-75
2023/04/16 06:40:48;;;;;;;18.40;11.47;;;;;;;6.17;100.00;96143.97;7401246;19;20384;-76
2023/04/16 06:43:16;;;;;;;13.63;10.17;;;;;;;6.23;100.00;96154.00;7397415;19;20429;-76
2023/04/16 06:45:44;;;;;;;12.87;10.50;;;;;;;6.30;100.00;96164.09;7397095;19;20384;-76
2023/04/16 06:48:11;;;;;;;15.53;11.10;;;;;;;6.27;100.00;96177.81;7398960;19;20447;-76
2023/04/16 06:50:38;;;;;;;15.87;9.80;;;;;;;6.04;100.00;96157.94;7401177;19;20793;-76
2023/04/16 06:53:07;;;;;;;12.17;10.60;;;;;;;6.03;100.00;96157.16;7397432;19;20425;-76
2023/04/16 06:55:34;;;;;;;12.73;9.70;;;;;;;6.14;100.00;96176.03;7399942;19;20369;-76
2023/04/16 06:58:01;;;;;;;10.77;8.60;;;;;;;6.25;100.00;96200.97;7397759;19;20415;-76
2023/04/16 07:00:28;;;;;;;12.10;10.17;;;;;;;6.03;100.00;96172.91;7399647;19;20401;-76
2023/04/16 07:02:55;;;;;;;12.40;9.13;;;;;;;6.24;100.00;96199.41;7397859;19;20459;-76
2023/04/16 07:05:24;;;;;;;9.87;7.70;;;;;;;6.14;100.00;96189.97;7397446;19;20401;-76
2023/04/16 07:07:51;;;;;;;9.33;6.70;;;;;;;6.12;100.00;96162.44;7399260;19;20345;-76
2023/04/16 07:10:18;;;;;;;10.03;8.73;;;;;;;6.42;100.00;96195.03;7401379;19;20459;-76
2023/04/16 07:12:45;;;;;;;10.10;8.00;;;;;;;6.44;100.00;96206.00;7397460;19;20392;-76
2023/04/16 07:15:12;;;;;;;10.33;7.60;;;;;;;6.22;100.00;96188.44;7398875;19;20407;-76
2023/04/16 07:17:39;;;;;;;9.70;7.57;;;;;;;6.46;100.00;96220.38;7398972;19;20369;-76
2023/04/16 07:20:06;;;;;;;34.87;31.67;;;;;;;6.62;100.00;96230.50;7400545;19;20380;-76
2023/04/16 07:22:33;;;;;;;12.20;11.10;;;;;;;6.55;100.00;96219.66;7397514;19;20893;-76
2023/04/16 07:25:00;;;;;;;9.33;8.30;;;;;;;6.31;100.00;96191.91;7396954;19;20480;-76
2023/04/16 07:27:27;;;;;;;8.60;7.77;;;;;;;6.37;100.00;96213.53;7396734;19;20361;-76
2023/04/16 07:29:54;;;;;;;12.30;7.60;;;;;;;6.44;100.00;96217.28;7398791;19;20415;-76
2023/04/16 07:32:21;;;;;;;6.90;6.10;;;;;;;6.58;100.00;96232.97;7397612;19;20408;-76
2023/04/16 07:34:48;;;;;;;9.30;7.77;;;;;;;6.46;100.00;96212.50;7397349;19;20436;-76
2023/04/16 07:37:15;;;;;;;10.93;7.67;;;;;;;6.42;100.00;96200.28;7396998;19;20929;-76
2023/04/16 07:39:42;;;;;;;9.50;7.90;;;;;;;6.53;100.00;96223.34;7398210;19;20818;-76
2023/04/16 07:42:09;;;;;;;10.80;9.20;;;;;;;6.51;100.00;96220.25;7397169;19;20960;-77
2023/04/16 07:44:36;;;;;;;13.07;9.13;;;;;;;6.41;100.00;96210.03;7394036;19;20506;-76
2023/04/16 07:47:03;;;;;;;12.07;8.97;;;;;;;6.61;100.00;96231.56;7398916;19;20381;-76
2023/04/16 07:49:31;;;;;;;9.67;8.30;;;;;;;6.63;100.00;96235.44;7395409;19;20949;-76
2023/04/16 07:51:58;;;;;;;9.53;7.37;;;;;;;6.68;100.00;96227.44;7397362;19;20416;-76
2023/04/16 07:54:25;;;;;;;8.77;7.87;;;;;;;6.84;100.00;96248.06;7395653;19;20921;-77
2023/04/16 07:56:54;;;;;;;13.30;9.60;;;;;;;6.79;100.00;96256.84;7396819;19;20397;-76
2023/04/16 07:59:21;;;;;;;9.53;8.00;;;;;;;6.49;100.00;96225.03;7393701;19;20488;-77
2023/04/16 08:01:51;;;;;;;9.37;8.40;;;;;;;6.53;100.00;96238.31;7396851;19;20344;-76
2023/04/16 08:04:23;;;;;;;11.07;8.73;;;;;;;6.59;100.00;96245.00;7393947;19;20449;-76
2023/04/16 08:06:51;;;;;;;8.50;7.50;;;;;;;6.14;100.00;96153.22;7396811;19;20423;-77
2023/04/16 08:09:20;;;;;;;14.43;8.40;;;;;;;6.89;100.00;96264.44;7397513;19;20352;-76
2023/04/16 08:11:48;;;;;;;9.13;8.33;;;;;;;6.90;100.00;96229.22;7398711;19;20400;-76
2023/04/16 08:14:16;;;;;;;40.17;32.53;;;;;;;7.11;100.00;96253.88;7394819;19;20724;-76
2023/04/16 08:16:43;;;;;;;14.37;12.87;;;;;;;7.17;100.00;96278.16;7397334;19;20397;-76
2023/04/16 08:19:10;;;;;;;21.63;17.17;;;;;;;6.84;100.00;96240.19;7396116;19;20384;-76
2023/04/16 08:21:38;;;;;;;24.87;19.20;;;;;;;6.87;100.00;96245.59;7398917;19;20397;-76
2023/04/16 08:24:05;;;;;;;14.50;11.97;;;;;;;6.93;100.00;96265.38;7394280;19;20404;-76
2023/04/16 08:26:32;;;;;;;12.40;10.37;;;;;;;6.59;100.00;96239.75;7396848;19;20389;-76
2023/04/16 08:28:59;;;;;;;9.83;8.67;;;;;;;6.88;100.00;96275.28;7395382;19;20739;-76
2023/04/16 08:31:26;;;;;;;8.90;7.07;;;;;;;6.74;100.00;96281.41;7397504;19;20481;-76
2023/04/16 08:33:53;;;;;;;8.83;7.60;;;;;;;6.71;100.00;96286.47;7394306;19;20424;-76
2023/04/16 08:36:20;;;;;;;8.80;7.60;;;;;;;6.88;100.00;96285.78;7398309;19;20885;-76
2023/04/16 08:38:47;;;;;;;9.93;8.93;;;;;;;6.92;100.00;96287.50;7396656;19;20345;-77
2023/04/16 08:41:14;;;;;;;7.23;6.53;;;;;;;7.00;100.00;96284.13;7396932;19;20400;-76
2023/04/16 08:43:44;;;;;;;9.60;7.97;;;;;;;7.00;100.00;96273.63;7395592;19;20823;-76
2023/04/16 08:46:11;;;;;;;8.47;7.50;;;;;;;7.28;100.00;96308.34;7391383;19;21003;-76
2023/04/16 08:48:41;;;;;;;8.00;7.20;;;;;;;7.37;100.00;96311.03;7395372;19;20417;-76
2023/04/16 08:51:09;;;;;;;6.87;6.20;;;;;;;7.13;100.00;96308.00;7394493;19;20401;-76
2023/04/16 08:54:11;;;;;;;7.77;6.53;;;;;;;7.23;100.00;96318.25;7394844;19;20494;-76
2023/04/16 08:56:40;;;;;;;6.50;5.90;;;;;;;7.07;100.00;96283.69;7395553;19;20405;-76
2023/04/16 08:59:09;;;;;;;7.37;6.67;;;;;;;7.11;100.00;96285.41;7395208;19;20384;-77
2023/04/16 09:01:38;;;;;;;8.87;7.17;;;;;;;7.46;100.00;96327.56;7395590;19;20397;-77
2023/04/16 09:04:06;;;;;;;7.53;6.83;;;;;;;7.30;100.00;96308.03;7392786;19;20773;-77
2023/04/16 09:06:33;;;;;;;7.90;6.37;;;;;;;7.23;100.00;96326.91;7395898;19;20372;-77
2023/04/16 09:09:03;;;;;;;7.43;6.80;;;;;;;7.20;100.00;96310.94;7394421;19;20400;-77
2023/04/16 09:11:30;;;;;;;8.70;7.90;;;;;;;7.15;100.00;96297.94;7395738;19;20385;-77
2023/04/16 09:13:59;;;;;;;8.27;7.47;;;;;;;7.26;100.00;96315.78;7394466;19;20409;-76
2023/04/16 09:16:29;;;;;;;6.20;5.50;;;;;;;7.51;100.00;96332.72;7395900;19;20389;-76
2023/04/16 09:18:56;;;;;;;8.20;7.30;;;;;;;7.62;100.00;96326.09;7395694;19;20783;-77
2023/04/16 09:21:24;;;;;;;8.60;7.70;;;;;;;7.72;100.00;96328.41;7396147;19;20464;-77
2023/04/16 09:23:52;;;;;;;8.10;7.30;;;;;;;8.21;100.00;96350.16;7393468;19;20762;-76
2023/04/16 09:26:20;;;;;;;7.13;5.53;;;;;;;8.09;100.00;96355.25;7395927;19;20357;-77
2023/04/16 09:28:50;;;;;;;6.17;5.57;;;;;;;7.86;100.00;96343.28;7395241;19;20345;-76
2023/04/16 09:31:18;;;;;;;6.50;5.80;;;;;;;7.88;100.00;96320.88;7395256;19;20416;-76
2023/04/16 09:34:07;;;;;;;6.33;5.73;;;;;;;8.19;100.00;96330.47;7392351;19;20437;-76
2023/04/16 09:36:35;;;;;;;6.40;5.60;;;;;;;7.84;100.00;96321.78;7392551;19;20405;-76
2023/04/16 09:39:02;;;;;;;7.17;6.20;;;;;;;8.34;100.00;96335.31;7394107;19;20389;-77
2023/04/16 09:41:31;;;;;;;7.30;6.00;;;;;;;8.21;100.00;96280.91;7394311;19;20341;-76
2023/04/16 09:44:00;;;;;;;5.30;4.80;;;;;;;8.52;100.00;96371.06;7395281;19;20385;-76
2023/04/16 09:46:35;;;;;;;6.60;5.50;;;;;;;8.81;100.00;96367.81;7392378;19;20396;-74
2023/04/16 09:49:13;;;;;;;7.23;5.60;;;;;;;8.88;100.00;96369.94;7396752;19;20376;-76
2023/04/16 09:51:41;;;;;;;5.80;5.20;;;;;;;8.54;100.00;96339.13;7395427;19;20425;-74
2023/04/16 09:54:08;;;;;;;4.93;4.07;;;;;;;8.58;100.00;96379.63;7394973;19;20421;-76
2023/04/16 09:56:43;;;;;;;5.17;4.67;;;;;;;8.65;100.00;96379.13;7396174;19;20384;-76
2023/04/16 09:59:16;;;;;;;4.40;3.50;;;;;;;8.65;100.00;96350.13;7401934;19;20717;-76
2023/04/16 10:01:48;;;;;;;4.67;4.03;;;;;;;8.48;100.00;96335.13;7402133;19;20380;-76
2023/04/16 10:04:15;;;;;;;3.77;3.33;;;;;;;8.63;100.00;96387.34;7400521;19;20433;-76
2023/04/16 10:06:43;;;;;;;4.17;3.87;;;;;;;8.93;100.00;96361.88;7399031;19;20428;-76
2023/04/16 10:09:10;;;;;;;3.23;3.03;;;;;;;9.07;100.00;96346.63;7400103;19;20379;-79
2023/04/16 10:11:38;;;;;;;4.40;3.80;;;;;;;9.17;100.00;96363.97;7400991;19;20431;-75
2023/04/16 10:14:05;;;;;;;4.10;3.53;;;;;;;9.27;100.00;96397.16;7398679;19;20416;-75
2023/04/16 10:16:33;;;;;;;3.53;3.23;;;;;;;8.87;100.00;96385.00;7401245;19;20420;-76
2023/04/16 10:19:00;;;;;;;3.33;3.03;;;;;;;8.73;100.00;96365.19;7401400;19;20902;-76
2023/04/16 10:21:32;;;;;;;8.70;4.10;;;;;;;9.16;100.00;96394.06;7400816;19;20408;-76
2023/04/16 10:24:00;;;;;;;4.37;3.97;;;;;;;8.82;100.00;96352.75;7399906;19;20476;-76
2023/04/16 10:26:29;;;;;;;10.67;8.47;;;;;;;9.36;100.00;96390.78;7399135;19;20380;-76
2023/04/16 10:28:57;;;;;;;9.87;6.73;;;;;;;9.63;100.00;96375.59;7399851;19;20446;-76
2023/04/16 10:31:27;;;;;;;80.73;56.07;;;;;;;9.52;100.00;96369.13;7398055;19;20746;-75
2023/04/16 10:33:55;;;;;;;11.07;9.43;;;;;;;9.69;100.00;96390.16;7398607;19;20412;-75
2023/04/16 10:36:25;;;;;;;4.80;4.30;;;;;;;9.90;100.00;96401.53;7398299;19;20380;-76
2023/04/16 10:38:57;;;;;;;9.13;7.03;;;;;;;9.65;100.00;96374.19;7399295;19;20358;-75
2023/04/16 10:41:25;;;;;;;3.63;3.13;;;;;;;9.66;100.00;96359.88;7397984;19;20719;-75
2023/04/16 10:44:02;;;;;;;4.83;3.40;;;;;;;9.99;100.00;96404.88;7398383;19;20514;-75
2023/04/16 10:46:36;;;;;;;2.97;2.67;;;;;;;9.41;100.00;96358.16;7396236;19;20817;-75
2023/04/16 10:49:18;;;;;;;3.40;3.10;;;;;;;9.51;100.00;96402.66;7399925;19;20780;-75
2023/04/16 10:51:54;;;;;;;3.50;3.17;;;;;;;9.37;100.00;96397.59;7398832;19;20364;-76
2023/04/16 10:54:29;;;;;;;3.53;2.77;;;;;;;9.23;100.00;96401.53;7396076;19;20752;-76
2023/04/16 10:56:58;;;;;;;2.30;2.10;;;;;;;9.32;100.00;96403.03;7399440;19;20772;-76
2023/04/16 10:59:34;;;;;;;3.37;2.60;;;;;;;9.42;100.00;96400.03;7398221;19;20771;-76
2023/04/16 11:02:11;;;;;;;2.90;2.50;;;;;;;10.03;100.00;96397.13;7400211;19;20433;-76
2023/04/16 11:04:42;;;;;;;7.90;7.10;;;;;;;10.40;100.00;96410.56;7396356;19;20457;-75
2023/04/16 11:07:12;;;;;;;3.73;3.43;;;;;;;10.45;100.00;96421.72;7399766;19;20901;-76
2023/04/16 11:09:49;;;;;;;4.90;2.67;;;;;;;10.50;100.00;96413.59;7395505;19;20403;-76
2023/04/16 11:12:33;;;;;;;3.43;3.13;;;;;;;10.03;100.00;96419.03;7399114;19;20705;-76
2023/04/16 11:15:05;;;;;;;3.40;3.10;;;;;;;10.46;100.00;96418.00;7398972;19;20809;-76
2023/04/16 11:17:39;;;;;;;7.50;4.10;;;;;;;10.28;100.00;96422.63;7397397;19;20944;-76
2023/04/16 11:20:09;;;;;;;4.87;3.77;;;;;;;10.24;100.00;96419.06;7399585;19;20445;-76
2023/04/16 11:22:45;;;;;;;3.50;3.20;;;;;;;9.95;100.00;96388.16;7398306;19;20721;-76
2023/04/16 11:25:12;;;;;;;3.87;3.57;;;;;;;10.26;100.00;96408.94;7394858;19;20443;-76
2023/04/16 11:27:39;;;;;;;3.73;3.33;;;;;;;10.12;100.00;96399.69;7398453;19;20420;-76
2023/04/16 11:30:10;;;;;;;4.87;4.50;;;;;;;10.18;100.00;96388.63;7396427;19;20401;-76